sensor_id;sensor_type;location;lat;lon;timestamp;temperature;humidity
17495;DHT22;8864;51.970;4.614;2024-02-16T00:01:02;17.60;90.00
17495;DHT22;8864;51.970;4.614;2024-02-16T00:03:31;17.70;90.00
17495;DHT22;8864;51.970;4.614;2024-02-16T00:05:58;17.70;90.00
17495;DHT22;8864;51.970;4.614;2024-02-16T00:08:25;17.70;90.00
17495;DHT22;8864;51.970;4.614;2024-02-16T00:10:52;17.70;90.00
17495;DHT22;8864;51.970;4.614;2024-02-16T00:13:19;17.70;90.00
17495;DHT22;8864;51.970;4.614;2024-02-16T00:15:46;17.70;90.00
17495;DHT22;8864;51.970;4.614;2024-02-16T00:18:15;17.70;90.00
17495;DHT22;8864;51.970;4.614;2024-02-16T00:20:41;17.70;90.10
17495;DHT22;8864;51.970;4.614;2024-02-16T00:23:08;17.70;90.00
17495;DHT22;8864;51.970;4.614;2024-02-16T00:25:36;17.70;90.00
17495;DHT22;8864;51.970;4.614;2024-02-16T00:28:05;17.70;90.00
17495;DHT22;8864;51.970;4.614;2024-02-16T00:30:32;17.70;90.00
17495;DHT22;8864;51.970;4.614;2024-02-16T00:32:59;17.70;90.00
17495;DHT22;8864;51.970;4.614;2024-02-16T00:35:28;17.70;90.00
17495;DHT22;8864;51.970;4.614;2024-02-16T00:37:58;17.70;90.00
17495;DHT22;8864;51.970;4.614;2024-02-16T00:40:25;17.70;90.00
17495;DHT22;8864;51.970;4.614;2024-02-16T00:42:53;17.70;90.00
17495;DHT22;8864;51.970;4.614;2024-02-16T00:45:20;17.70;90.00
17495;DHT22;8864;51.970;4.614;2024-02-16T00:47:47;17.70;90.00
17495;DHT22;8864;51.970;4.614;2024-02-16T00:50:14;17.70;90.00
17495;DHT22;8864;51.970;4.614;2024-02-16T00:52:43;17.70;90.00
17495;DHT22;8864;51.970;4.614;2024-02-16T00:55:11;17.60;90.00
17495;DHT22;8864;51.970;4.614;2024-02-16T00:57:38;17.70;90.00
17495;DHT22;8864;51.970;4.614;2024-02-16T01:00:06;17.70;90.00
17495;DHT22;8864;51.970;4.614;2024-02-16T01:02:34;17.70;90.00
17495;DHT22;8864;51.970;4.614;2024-02-16T01:05:02;17.60;90.00
17495;DHT22;8864;51.970;4.614;2024-02-16T01:07:29;17.70;90.00
17495;DHT22;8864;51.970;4.614;2024-02-16T01:09:58;17.70;90.00
17495;DHT22;8864;51.970;4.614;2024-02-16T01:12:28;17.70;90.00
17495;DHT22;8864;51.970;4.614;2024-02-16T01:14:56;17.70;90.00
17495;DHT22;8864;51.970;4.614;2024-02-16T01:17:23;17.60;90.00
17495;DHT22;8864;51.970;4.614;2024-02-16T01:19:50;17.60;90.00
17495;DHT22;8864;51.970;4.614;2024-02-16T01:22:17;17.60;90.00
17495;DHT22;8864;51.970;4.614;2024-02-16T01:24:44;17.60;90.00
17495;DHT22;8864;51.970;4.614;2024-02-16T01:27:12;17.60;90.00
17495;DHT22;8864;51.970;4.614;2024-02-16T01:29:40;17.60;90.00
17495;DHT22;8864;51.970;4.614;2024-02-16T01:32:07;17.60;90.00
17495;DHT22;8864;51.970;4.614;2024-02-16T01:34:34;17.60;90.00
17495;DHT22;8864;51.970;4.614;2024-02-16T01:37:01;17.70;90.00
17495;DHT22;8864;51.970;4.614;2024-02-16T01:39:27;17.60;90.00
17495;DHT22;8864;51.970;4.614;2024-02-16T01:41:55;17.60;90.00
17495;DHT22;8864;51.970;4.614;2024-02-16T01:44:23;17.60;90.00
17495;DHT22;8864;51.970;4.614;2024-02-16T01:46:50;17.60;90.00
17495;DHT22;8864;51.970;4.614;2024-02-16T01:49:17;17.60;90.00
17495;DHT22;8864;51.970;4.614;2024-02-16T01:51:44;17.60;90.00
17495;DHT22;8864;51.970;4.614;2024-02-16T01:54:11;17.60;90.00
17495;DHT22;8864;51.970;4.614;2024-02-16T01:56:38;17.60;90.00
17495;DHT22;8864;51.970;4.614;2024-02-16T01:59:06;17.70;90.00
17495;DHT22;8864;51.970;4.614;2024-02-16T02:01:34;17.60;90.00
17495;DHT22;8864;51.970;4.614;2024-02-16T02:04:01;17.60;90.00
17495;DHT22;8864;51.970;4.614;2024-02-16T02:06:28;17.60;90.30
17495;DHT22;8864;51.970;4.614;2024-02-16T02:08:55;17.60;90.00
17495;DHT22;8864;51.970;4.614;2024-02-16T02:11:22;17.60;90.00
17495;DHT22;8864;51.970;4.614;2024-02-16T02:13:49;17.60;90.00
17495;DHT22;8864;51.970;4.614;2024-02-16T02:16:17;17.60;90.00
17495;DHT22;8864;51.970;4.614;2024-02-16T02:18:46;17.60;90.00
17495;DHT22;8864;51.970;4.614;2024-02-16T02:21:13;17.60;90.00
17495;DHT22;8864;51.970;4.614;2024-02-16T02:23:42;17.60;90.00
17495;DHT22;8864;51.970;4.614;2024-02-16T02:26:09;17.60;90.00
17495;DHT22;8864;51.970;4.614;2024-02-16T02:28:36;17.60;90.00
17495;DHT22;8864;51.970;4.614;2024-02-16T02:31:03;17.60;90.00
17495;DHT22;8864;51.970;4.614;2024-02-16T02:33:31;17.60;90.00
17495;DHT22;8864;51.970;4.614;2024-02-16T02:35:58;17.60;90.00
17495;DHT22;8864;51.970;4.614;2024-02-16T02:38:25;17.60;90.00
17495;DHT22;8864;51.970;4.614;2024-02-16T02:40:54;17.60;90.00
17495;DHT22;8864;51.970;4.614;2024-02-16T02:43:20;17.60;89.90
17495;DHT22;8864;51.970;4.614;2024-02-16T02:45:48;17.60;90.00
17495;DHT22;8864;51.970;4.614;2024-02-16T02:48:15;17.60;90.00
17495;DHT22;8864;51.970;4.614;2024-02-16T02:50:43;17.60;89.90
17495;DHT22;8864;51.970;4.614;2024-02-16T02:53:10;17.60;89.90
17495;DHT22;8864;51.970;4.614;2024-02-16T02:55:37;17.60;89.90
17495;DHT22;8864;51.970;4.614;2024-02-16T02:58:05;17.60;89.90
17495;DHT22;8864;51.970;4.614;2024-02-16T03:00:32;17.60;89.90
17495;DHT22;8864;51.970;4.614;2024-02-16T03:03:00;17.60;89.90
17495;DHT22;8864;51.970;4.614;2024-02-16T03:05:27;17.60;89.90
17495;DHT22;8864;51.970;4.614;2024-02-16T03:07:54;17.60;89.90
17495;DHT22;8864;51.970;4.614;2024-02-16T03:10:20;17.60;89.90
17495;DHT22;8864;51.970;4.614;2024-02-16T03:12:49;17.60;89.80
17495;DHT22;8864;51.970;4.614;2024-02-16T03:15:17;17.60;89.80
17495;DHT22;8864;51.970;4.614;2024-02-16T03:17:45;17.60;89.80
17495;DHT22;8864;51.970;4.614;2024-02-16T03:20:12;17.60;89.70
17495;DHT22;8864;51.970;4.614;2024-02-16T03:22:38;17.60;89.70
17495;DHT22;8864;51.970;4.614;2024-02-16T03:25:06;17.60;89.70
17495;DHT22;8864;51.970;4.614;2024-02-16T03:27:33;17.60;89.70
17495;DHT22;8864;51.970;4.614;2024-02-16T03:30:00;17.60;89.70
17495;DHT22;8864;51.970;4.614;2024-02-16T03:32:29;17.60;89.70
17495;DHT22;8864;51.970;4.614;2024-02-16T03:34:57;17.60;89.70
17495;DHT22;8864;51.970;4.614;2024-02-16T03:37:24;17.60;89.70
17495;DHT22;8864;51.970;4.614;2024-02-16T03:39:51;17.60;89.60
17495;DHT22;8864;51.970;4.614;2024-02-16T03:42:19;17.60;89.60
17495;DHT22;8864;51.970;4.614;2024-02-16T03:44:46;17.60;89.70
17495;DHT22;8864;51.970;4.614;2024-02-16T03:47:13;17.60;89.70
17495;DHT22;8864;51.970;4.614;2024-02-16T03:49:43;17.60;89.60
17495;DHT22;8864;51.970;4.614;2024-02-16T03:52:10;17.60;89.60
17495;DHT22;8864;51.970;4.614;2024-02-16T03:54:37;17.60;89.60
17495;DHT22;8864;51.970;4.614;2024-02-16T03:57:04;17.60;89.60
17495;DHT22;8864;51.970;4.614;2024-02-16T03:59:35;17.60;89.60
17495;DHT22;8864;51.970;4.614;2024-02-16T04:02:02;17.60;89.60
17495;DHT22;8864;51.970;4.614;2024-02-16T04:04:28;17.60;89.60
17495;DHT22;8864;51.970;4.614;2024-02-16T04:06:57;17.60;89.60
17495;DHT22;8864;51.970;4.614;2024-02-16T04:09:24;17.60;89.60
17495;DHT22;8864;51.970;4.614;2024-02-16T04:11:51;17.60;89.60
17495;DHT22;8864;51.970;4.614;2024-02-16T04:14:18;17.60;89.60
17495;DHT22;8864;51.970;4.614;2024-02-16T04:16:45;17.60;89.70
17495;DHT22;8864;51.970;4.614;2024-02-16T04:19:12;17.60;89.70
17495;DHT22;8864;51.970;4.614;2024-02-16T04:21:39;17.50;89.60
17495;DHT22;8864;51.970;4.614;2024-02-16T04:24:08;17.60;89.70
17495;DHT22;8864;51.970;4.614;2024-02-16T04:26:35;17.60;89.70
17495;DHT22;8864;51.970;4.614;2024-02-16T04:29:03;17.60;89.70
17495;DHT22;8864;51.970;4.614;2024-02-16T04:31:31;17.60;89.70
17495;DHT22;8864;51.970;4.614;2024-02-16T04:33:57;17.60;89.60
17495;DHT22;8864;51.970;4.614;2024-02-16T04:36:25;17.60;89.70
17495;DHT22;8864;51.970;4.614;2024-02-16T04:38:52;17.60;89.70
17495;DHT22;8864;51.970;4.614;2024-02-16T04:41:21;17.60;90.10
17495;DHT22;8864;51.970;4.614;2024-02-16T04:43:48;17.60;89.70
17495;DHT22;8864;51.970;4.614;2024-02-16T04:46:15;17.60;89.70
17495;DHT22;8864;51.970;4.614;2024-02-16T04:48:42;17.60;89.70
17495;DHT22;8864;51.970;4.614;2024-02-16T04:51:10;17.60;89.70
17495;DHT22;8864;51.970;4.614;2024-02-16T04:53:37;17.60;89.70
17495;DHT22;8864;51.970;4.614;2024-02-16T04:56:05;17.60;89.70
17495;DHT22;8864;51.970;4.614;2024-02-16T04:58:33;17.60;89.70
17495;DHT22;8864;51.970;4.614;2024-02-16T05:01:00;17.60;89.70
17495;DHT22;8864;51.970;4.614;2024-02-16T05:03:28;17.60;89.70
17495;DHT22;8864;51.970;4.614;2024-02-16T05:05:55;17.60;89.70
17495;DHT22;8864;51.970;4.614;2024-02-16T05:08:22;17.60;89.70
17495;DHT22;8864;51.970;4.614;2024-02-16T05:10:50;17.60;89.70
17495;DHT22;8864;51.970;4.614;2024-02-16T05:13:17;17.60;89.70
17495;DHT22;8864;51.970;4.614;2024-02-16T05:15:46;17.60;89.70
17495;DHT22;8864;51.970;4.614;2024-02-16T05:18:14;17.60;89.70
17495;DHT22;8864;51.970;4.614;2024-02-16T05:20:43;17.60;89.70
17495;DHT22;8864;51.970;4.614;2024-02-16T05:23:10;17.60;89.70
17495;DHT22;8864;51.970;4.614;2024-02-16T05:25:37;17.60;89.70
17495;DHT22;8864;51.970;4.614;2024-02-16T05:28:04;17.60;89.70
17495;DHT22;8864;51.970;4.614;2024-02-16T05:30:31;17.60;89.70
17495;DHT22;8864;51.970;4.614;2024-02-16T05:33:00;17.60;89.70
17495;DHT22;8864;51.970;4.614;2024-02-16T05:35:28;17.60;89.70
17495;DHT22;8864;51.970;4.614;2024-02-16T05:37:59;17.60;89.70
17495;DHT22;8864;51.970;4.614;2024-02-16T05:40:32;17.60;89.70
17495;DHT22;8864;51.970;4.614;2024-02-16T05:43:11;17.60;89.70
17495;DHT22;8864;51.970;4.614;2024-02-16T05:45:38;17.60;89.70
17495;DHT22;8864;51.970;4.614;2024-02-16T05:48:08;17.60;89.80
17495;DHT22;8864;51.970;4.614;2024-02-16T05:50:36;17.60;89.70
17495;DHT22;8864;51.970;4.614;2024-02-16T05:53:03;17.60;89.90
17495;DHT22;8864;51.970;4.614;2024-02-16T05:55:30;17.60;89.80
17495;DHT22;8864;51.970;4.614;2024-02-16T05:57:56;17.60;89.70
17495;DHT22;8864;51.970;4.614;2024-02-16T06:00:23;17.60;89.70
17495;DHT22;8864;51.970;4.614;2024-02-16T06:02:50;17.60;89.70
17495;DHT22;8864;51.970;4.614;2024-02-16T06:05:19;17.60;89.70
17495;DHT22;8864;51.970;4.614;2024-02-16T06:07:47;17.60;89.70
17495;DHT22;8864;51.970;4.614;2024-02-16T06:10:14;17.60;89.70
17495;DHT22;8864;51.970;4.614;2024-02-16T06:12:40;17.60;89.70
17495;DHT22;8864;51.970;4.614;2024-02-16T06:15:08;17.60;89.70
17495;DHT22;8864;51.970;4.614;2024-02-16T06:17:35;17.60;89.70
17495;DHT22;8864;51.970;4.614;2024-02-16T06:20:03;17.60;89.80
17495;DHT22;8864;51.970;4.614;2024-02-16T06:22:32;17.60;89.90
17495;DHT22;8864;51.970;4.614;2024-02-16T06:24:59;17.60;90.00
17495;DHT22;8864;51.970;4.614;2024-02-16T06:27:26;17.60;90.00
17495;DHT22;8864;51.970;4.614;2024-02-16T06:29:53;17.70;90.00
17495;DHT22;8864;51.970;4.614;2024-02-16T06:32:21;17.60;90.00
17495;DHT22;8864;51.970;4.614;2024-02-16T06:34:48;17.70;90.00
17495;DHT22;8864;51.970;4.614;2024-02-16T06:37:15;17.60;90.00
17495;DHT22;8864;51.970;4.614;2024-02-16T06:39:43;17.60;90.00
17495;DHT22;8864;51.970;4.614;2024-02-16T06:42:10;17.60;89.90
17495;DHT22;8864;51.970;4.614;2024-02-16T06:44:38;17.60;89.90
17495;DHT22;8864;51.970;4.614;2024-02-16T06:47:05;17.70;90.00
17495;DHT22;8864;51.970;4.614;2024-02-16T06:49:32;17.70;89.90
17495;DHT22;8864;51.970;4.614;2024-02-16T06:52:00;17.70;89.90
17495;DHT22;8864;51.970;4.614;2024-02-16T06:54:26;17.60;89.80
17495;DHT22;8864;51.970;4.614;2024-02-16T06:56:55;17.60;89.70
17495;DHT22;8864;51.970;4.614;2024-02-16T06:59:22;17.60;89.70
17495;DHT22;8864;51.970;4.614;2024-02-16T07:01:49;17.70;89.70
17495;DHT22;8864;51.970;4.614;2024-02-16T07:04:16;17.60;89.70
17495;DHT22;8864;51.970;4.614;2024-02-16T07:06:43;17.60;89.60
17495;DHT22;8864;51.970;4.614;2024-02-16T07:09:10;17.70;89.60
17495;DHT22;8864;51.970;4.614;2024-02-16T07:11:40;17.70;89.60
17495;DHT22;8864;51.970;4.614;2024-02-16T07:14:08;17.70;89.60
17495;DHT22;8864;51.970;4.614;2024-02-16T07:16:35;17.70;89.60
17495;DHT22;8864;51.970;4.614;2024-02-16T07:19:02;17.70;89.50
17495;DHT22;8864;51.970;4.614;2024-02-16T07:21:30;17.70;89.40
17495;DHT22;8864;51.970;4.614;2024-02-16T07:23:57;17.70;89.50
17495;DHT22;8864;51.970;4.614;2024-02-16T07:26:24;17.60;89.40
17495;DHT22;8864;51.970;4.614;2024-02-16T07:28:51;17.70;89.80
17495;DHT22;8864;51.970;4.614;2024-02-16T07:31:20;17.70;90.00
17495;DHT22;8864;51.970;4.614;2024-02-16T07:33:46;17.70;90.00
17495;DHT22;8864;51.970;4.614;2024-02-16T07:36:14;17.70;89.70
17495;DHT22;8864;51.970;4.614;2024-02-16T07:38:43;17.80;89.60
17495;DHT22;8864;51.970;4.614;2024-02-16T07:41:10;17.80;89.40
17495;DHT22;8864;51.970;4.614;2024-02-16T07:43:37;17.80;89.60
17495;DHT22;8864;51.970;4.614;2024-02-16T07:46:04;17.80;90.10
17495;DHT22;8864;51.970;4.614;2024-02-16T07:48:32;17.90;90.40
17495;DHT22;8864;51.970;4.614;2024-02-16T07:51:00;17.90;90.30
17495;DHT22;8864;51.970;4.614;2024-02-16T07:53:28;17.80;90.40
17495;DHT22;8864;51.970;4.614;2024-02-16T07:55:55;17.90;90.00
17495;DHT22;8864;51.970;4.614;2024-02-16T07:58:22;17.80;89.90
17495;DHT22;8864;51.970;4.614;2024-02-16T08:00:49;17.80;89.90
17495;DHT22;8864;51.970;4.614;2024-02-16T08:03:16;17.80;89.90
17495;DHT22;8864;51.970;4.614;2024-02-16T08:05:45;17.80;89.90
17495;DHT22;8864;51.970;4.614;2024-02-16T08:08:12;17.80;89.90
17495;DHT22;8864;51.970;4.614;2024-02-16T08:10:39;17.80;89.80
17495;DHT22;8864;51.970;4.614;2024-02-16T08:13:06;17.80;89.80
17495;DHT22;8864;51.970;4.614;2024-02-16T08:15:33;17.80;89.80
17495;DHT22;8864;51.970;4.614;2024-02-16T08:18:00;17.80;89.90
17495;DHT22;8864;51.970;4.614;2024-02-16T08:20:27;17.80;89.90
17495;DHT22;8864;51.970;4.614;2024-02-16T08:22:55;17.80;89.90
17495;DHT22;8864;51.970;4.614;2024-02-16T08:25:22;17.80;89.80
17495;DHT22;8864;51.970;4.614;2024-02-16T08:27:49;17.80;89.80
17495;DHT22;8864;51.970;4.614;2024-02-16T08:30:16;17.80;89.80
17495;DHT22;8864;51.970;4.614;2024-02-16T08:32:43;17.80;89.80
17495;DHT22;8864;51.970;4.614;2024-02-16T08:35:11;17.80;89.70
17495;DHT22;8864;51.970;4.614;2024-02-16T08:37:40;17.80;89.70
17495;DHT22;8864;51.970;4.614;2024-02-16T08:40:12;17.80;89.70
17495;DHT22;8864;51.970;4.614;2024-02-16T08:42:40;17.80;89.70
17495;DHT22;8864;51.970;4.614;2024-02-16T08:45:08;17.80;89.70
17495;DHT22;8864;51.970;4.614;2024-02-16T08:47:35;17.80;89.80
17495;DHT22;8864;51.970;4.614;2024-02-16T08:50:03;17.80;89.70
17495;DHT22;8864;51.970;4.614;2024-02-16T08:52:31;17.80;89.70
17495;DHT22;8864;51.970;4.614;2024-02-16T08:54:58;17.80;89.70
17495;DHT22;8864;51.970;4.614;2024-02-16T08:57:27;17.80;89.70
17495;DHT22;8864;51.970;4.614;2024-02-16T08:59:55;17.80;89.70
17495;DHT22;8864;51.970;4.614;2024-02-16T09:02:22;17.90;89.70
17495;DHT22;8864;51.970;4.614;2024-02-16T09:04:49;17.90;89.60
17495;DHT22;8864;51.970;4.614;2024-02-16T09:07:16;17.90;89.70
17495;DHT22;8864;51.970;4.614;2024-02-16T09:09:43;17.90;89.60
17495;DHT22;8864;51.970;4.614;2024-02-16T09:12:10;17.90;89.60
17495;DHT22;8864;51.970;4.614;2024-02-16T09:14:38;17.90;89.60
17495;DHT22;8864;51.970;4.614;2024-02-16T09:17:06;17.90;89.60
17495;DHT22;8864;51.970;4.614;2024-02-16T09:19:33;17.90;89.50
17495;DHT22;8864;51.970;4.614;2024-02-16T09:22:00;17.90;89.50
17495;DHT22;8864;51.970;4.614;2024-02-16T09:24:28;17.90;89.60
17495;DHT22;8864;51.970;4.614;2024-02-16T09:26:56;17.90;89.60
17495;DHT22;8864;51.970;4.614;2024-02-16T09:29:23;17.90;89.60
17495;DHT22;8864;51.970;4.614;2024-02-16T09:31:52;17.90;89.60
17495;DHT22;8864;51.970;4.614;2024-02-16T09:34:20;17.90;89.60
17495;DHT22;8864;51.970;4.614;2024-02-16T09:36:47;17.90;89.60
17495;DHT22;8864;51.970;4.614;2024-02-16T09:39:14;17.90;89.60
17495;DHT22;8864;51.970;4.614;2024-02-16T09:41:42;17.90;89.70
17495;DHT22;8864;51.970;4.614;2024-02-16T09:44:10;17.90;89.70
17495;DHT22;8864;51.970;4.614;2024-02-16T09:46:37;17.90;89.80
17495;DHT22;8864;51.970;4.614;2024-02-16T09:49:05;17.80;89.70
17495;DHT22;8864;51.970;4.614;2024-02-16T09:51:36;17.90;89.80
17495;DHT22;8864;51.970;4.614;2024-02-16T09:54:03;17.80;89.80
17495;DHT22;8864;51.970;4.614;2024-02-16T09:56:30;17.80;89.80
17495;DHT22;8864;51.970;4.614;2024-02-16T09:58:57;17.80;89.90
17495;DHT22;8864;51.970;4.614;2024-02-16T10:01:25;17.80;89.90
17495;DHT22;8864;51.970;4.614;2024-02-16T10:03:52;17.80;90.20
17495;DHT22;8864;51.970;4.614;2024-02-16T10:06:20;17.90;89.90
17495;DHT22;8864;51.970;4.614;2024-02-16T10:08:48;17.80;89.90
17495;DHT22;8864;51.970;4.614;2024-02-16T10:11:16;17.80;89.90
17495;DHT22;8864;51.970;4.614;2024-02-16T10:13:54;17.80;89.90
17495;DHT22;8864;51.970;4.614;2024-02-16T10:16:22;17.80;89.90
17495;DHT22;8864;51.970;4.614;2024-02-16T10:18:49;17.80;89.90
17495;DHT22;8864;51.970;4.614;2024-02-16T10:21:25;17.80;90.20
17495;DHT22;8864;51.970;4.614;2024-02-16T10:23:59;17.80;90.00
17495;DHT22;8864;51.970;4.614;2024-02-16T10:26:27;17.80;90.00
17495;DHT22;8864;51.970;4.614;2024-02-16T10:28:55;17.80;90.00
17495;DHT22;8864;51.970;4.614;2024-02-16T10:31:24;17.80;90.00
17495;DHT22;8864;51.970;4.614;2024-02-16T10:33:57;17.80;90.00
17495;DHT22;8864;51.970;4.614;2024-02-16T10:36:26;17.80;90.00
17495;DHT22;8864;51.970;4.614;2024-02-16T10:38:55;17.80;90.00
17495;DHT22;8864;51.970;4.614;2024-02-16T10:41:26;17.80;90.00
17495;DHT22;8864;51.970;4.614;2024-02-16T10:43:55;17.80;90.00
17495;DHT22;8864;51.970;4.614;2024-02-16T10:46:22;17.80;90.00
17495;DHT22;8864;51.970;4.614;2024-02-16T10:48:50;17.80;90.00
17495;DHT22;8864;51.970;4.614;2024-02-16T10:51:21;17.80;90.00
17495;DHT22;8864;51.970;4.614;2024-02-16T10:53:52;17.80;90.00
17495;DHT22;8864;51.970;4.614;2024-02-16T10:56:27;17.80;90.00
17495;DHT22;8864;51.970;4.614;2024-02-16T10:58:55;17.80;90.00
17495;DHT22;8864;51.970;4.614;2024-02-16T11:01:23;17.80;90.00
17495;DHT22;8864;51.970;4.614;2024-02-16T11:04:00;17.80;90.00
17495;DHT22;8864;51.970;4.614;2024-02-16T11:06:28;17.80;90.00
17495;DHT22;8864;51.970;4.614;2024-02-16T11:09:01;17.80;90.00
17495;DHT22;8864;51.970;4.614;2024-02-16T11:11:33;17.80;90.00
17495;DHT22;8864;51.970;4.614;2024-02-16T11:14:01;17.80;90.00
17495;DHT22;8864;51.970;4.614;2024-02-16T11:16:29;17.80;90.00
17495;DHT22;8864;51.970;4.614;2024-02-16T11:18:56;17.80;90.00
17495;DHT22;8864;51.970;4.614;2024-02-16T11:21:23;17.80;90.00
17495;DHT22;8864;51.970;4.614;2024-02-16T11:23:51;17.80;90.00
17495;DHT22;8864;51.970;4.614;2024-02-16T11:26:19;17.80;90.10
17495;DHT22;8864;51.970;4.614;2024-02-16T11:28:46;17.80;90.10
17495;DHT22;8864;51.970;4.614;2024-02-16T11:31:13;17.80;90.10
17495;DHT22;8864;51.970;4.614;2024-02-16T11:33:43;17.80;90.10
17495;DHT22;8864;51.970;4.614;2024-02-16T11:36:10;17.80;90.10
17495;DHT22;8864;51.970;4.614;2024-02-16T11:38:38;17.80;90.10
17495;DHT22;8864;51.970;4.614;2024-02-16T11:41:06;17.80;90.10
17495;DHT22;8864;51.970;4.614;2024-02-16T11:43:35;17.80;90.10
17495;DHT22;8864;51.970;4.614;2024-02-16T11:46:11;17.80;90.10
17495;DHT22;8864;51.970;4.614;2024-02-16T11:48:38;17.80;90.20
17495;DHT22;8864;51.970;4.614;2024-02-16T11:51:06;17.80;90.20
17495;DHT22;8864;51.970;4.614;2024-02-16T11:53:33;17.80;90.20
17495;DHT22;8864;51.970;4.614;2024-02-16T11:56:00;17.80;90.50
17495;DHT22;8864;51.970;4.614;2024-02-16T11:58:28;17.90;90.20
17495;DHT22;8864;51.970;4.614;2024-02-16T12:00:58;17.90;90.20
17495;DHT22;8864;51.970;4.614;2024-02-16T12:03:26;17.90;90.10
17495;DHT22;8864;51.970;4.614;2024-02-16T12:05:54;17.90;90.10
17495;DHT22;8864;51.970;4.614;2024-02-16T12:08:22;18.00;90.10
17495;DHT22;8864;51.970;4.614;2024-02-16T12:10:50;17.90;90.10
17495;DHT22;8864;51.970;4.614;2024-02-16T12:13:18;18.00;90.10
17495;DHT22;8864;51.970;4.614;2024-02-16T12:15:46;18.00;90.10
17495;DHT22;8864;51.970;4.614;2024-02-16T12:18:22;18.00;90.00
17495;DHT22;8864;51.970;4.614;2024-02-16T12:20:59;18.00;90.00
17495;DHT22;8864;51.970;4.614;2024-02-16T12:23:27;18.00;90.00
17495;DHT22;8864;51.970;4.614;2024-02-16T12:25:56;18.00;90.00
17495;DHT22;8864;51.970;4.614;2024-02-16T12:28:25;18.00;90.00
17495;DHT22;8864;51.970;4.614;2024-02-16T12:30:53;18.10;90.00
17495;DHT22;8864;51.970;4.614;2024-02-16T12:33:22;18.00;90.00
17495;DHT22;8864;51.970;4.614;2024-02-16T12:35:50;18.10;90.00
17495;DHT22;8864;51.970;4.614;2024-02-16T12:38:17;18.00;90.00
17495;DHT22;8864;51.970;4.614;2024-02-16T12:40:45;18.10;90.00
17495;DHT22;8864;51.970;4.614;2024-02-16T12:43:12;18.00;90.00
17495;DHT22;8864;51.970;4.614;2024-02-16T12:45:41;18.00;90.00
17495;DHT22;8864;51.970;4.614;2024-02-16T12:48:08;18.00;90.00
17495;DHT22;8864;51.970;4.614;2024-02-16T12:50:40;18.00;90.10
17495;DHT22;8864;51.970;4.614;2024-02-16T12:53:08;18.00;90.00
17495;DHT22;8864;51.970;4.614;2024-02-16T12:55:36;18.00;90.00
17495;DHT22;8864;51.970;4.614;2024-02-16T12:58:03;18.00;90.10
17495;DHT22;8864;51.970;4.614;2024-02-16T13:00:30;18.00;90.10
17495;DHT22;8864;51.970;4.614;2024-02-16T13:02:57;18.00;90.10
17495;DHT22;8864;51.970;4.614;2024-02-16T13:05:24;18.00;90.10
17495;DHT22;8864;51.970;4.614;2024-02-16T13:07:52;17.90;90.10
17495;DHT22;8864;51.970;4.614;2024-02-16T13:10:19;18.00;90.20
17495;DHT22;8864;51.970;4.614;2024-02-16T13:12:47;18.00;90.20
17495;DHT22;8864;51.970;4.614;2024-02-16T13:15:14;18.00;90.20
17495;DHT22;8864;51.970;4.614;2024-02-16T13:17:41;18.00;90.20
17495;DHT22;8864;51.970;4.614;2024-02-16T13:20:08;18.00;90.20
17495;DHT22;8864;51.970;4.614;2024-02-16T13:22:35;18.00;90.20
17495;DHT22;8864;51.970;4.614;2024-02-16T13:25:05;18.00;90.20
17495;DHT22;8864;51.970;4.614;2024-02-16T13:27:32;18.00;90.20
17495;DHT22;8864;51.970;4.614;2024-02-16T13:30:00;18.00;90.20
17495;DHT22;8864;51.970;4.614;2024-02-16T13:32:27;18.00;90.20
17495;DHT22;8864;51.970;4.614;2024-02-16T13:34:54;18.00;90.10
17495;DHT22;8864;51.970;4.614;2024-02-16T13:37:21;18.10;90.20
17495;DHT22;8864;51.970;4.614;2024-02-16T13:39:48;18.10;90.10
17495;DHT22;8864;51.970;4.614;2024-02-16T13:42:16;18.10;90.10
17495;DHT22;8864;51.970;4.614;2024-02-16T13:44:45;18.10;90.10
17495;DHT22;8864;51.970;4.614;2024-02-16T13:47:13;18.10;90.10
17495;DHT22;8864;51.970;4.614;2024-02-16T13:49:40;18.10;90.10
17495;DHT22;8864;51.970;4.614;2024-02-16T13:52:07;18.10;90.10
17495;DHT22;8864;51.970;4.614;2024-02-16T13:54:34;18.10;90.10
17495;DHT22;8864;51.970;4.614;2024-02-16T13:57:02;18.10;90.10
17495;DHT22;8864;51.970;4.614;2024-02-16T13:59:30;18.10;90.10
17495;DHT22;8864;51.970;4.614;2024-02-16T14:01:58;18.10;90.10
17495;DHT22;8864;51.970;4.614;2024-02-16T14:04:26;18.10;90.10
17495;DHT22;8864;51.970;4.614;2024-02-16T14:06:53;18.10;90.10
17495;DHT22;8864;51.970;4.614;2024-02-16T14:09:20;18.10;90.10
17495;DHT22;8864;51.970;4.614;2024-02-16T14:11:47;18.10;90.10
17495;DHT22;8864;51.970;4.614;2024-02-16T14:14:14;18.10;90.10
17495;DHT22;8864;51.970;4.614;2024-02-16T14:16:43;18.10;90.10
17495;DHT22;8864;51.970;4.614;2024-02-16T14:19:10;18.10;90.10
17495;DHT22;8864;51.970;4.614;2024-02-16T14:21:37;18.10;90.10
17495;DHT22;8864;51.970;4.614;2024-02-16T14:24:05;18.10;90.10
17495;DHT22;8864;51.970;4.614;2024-02-16T14:26:32;18.10;90.10
17495;DHT22;8864;51.970;4.614;2024-02-16T14:29:00;18.10;90.10
17495;DHT22;8864;51.970;4.614;2024-02-16T14:31:27;18.10;90.10
17495;DHT22;8864;51.970;4.614;2024-02-16T14:33:55;18.10;90.10
17495;DHT22;8864;51.970;4.614;2024-02-16T14:36:22;18.10;90.10
17495;DHT22;8864;51.970;4.614;2024-02-16T14:38:49;18.10;90.10
17495;DHT22;8864;51.970;4.614;2024-02-16T14:41:16;18.10;90.10
17495;DHT22;8864;51.970;4.614;2024-02-16T14:43:43;18.10;90.10
17495;DHT22;8864;51.970;4.614;2024-02-16T14:46:10;18.10;90.10
17495;DHT22;8864;51.970;4.614;2024-02-16T14:48:37;18.10;90.10
17495;DHT22;8864;51.970;4.614;2024-02-16T14:51:06;18.10;90.10
17495;DHT22;8864;51.970;4.614;2024-02-16T14:53:33;18.10;90.10
17495;DHT22;8864;51.970;4.614;2024-02-16T14:56:00;18.10;90.10
17495;DHT22;8864;51.970;4.614;2024-02-16T14:58:28;18.10;90.10
17495;DHT22;8864;51.970;4.614;2024-02-16T15:00:55;18.20;90.10
17495;DHT22;8864;51.970;4.614;2024-02-16T15:03:22;18.20;90.00
17495;DHT22;8864;51.970;4.614;2024-02-16T15:05:51;18.20;90.00
17495;DHT22;8864;51.970;4.614;2024-02-16T15:08:19;18.20;90.00
17495;DHT22;8864;51.970;4.614;2024-02-16T15:10:47;18.20;90.00
17495;DHT22;8864;51.970;4.614;2024-02-16T15:13:15;18.20;90.00
17495;DHT22;8864;51.970;4.614;2024-02-16T15:15:42;18.20;90.30
17495;DHT22;8864;51.970;4.614;2024-02-16T15:18:10;18.20;90.00
17495;DHT22;8864;51.970;4.614;2024-02-16T15:20:37;18.10;90.00
17495;DHT22;8864;51.970;4.614;2024-02-16T15:23:04;18.10;90.10
17495;DHT22;8864;51.970;4.614;2024-02-16T15:25:32;18.10;90.10
17495;DHT22;8864;51.970;4.614;2024-02-16T15:28:00;18.10;90.10
17495;DHT22;8864;51.970;4.614;2024-02-16T15:30:27;18.10;90.10
17495;DHT22;8864;51.970;4.614;2024-02-16T15:32:55;18.10;90.10
17495;DHT22;8864;51.970;4.614;2024-02-16T15:35:23;18.10;90.20
17495;DHT22;8864;51.970;4.614;2024-02-16T15:37:51;18.10;90.20
17495;DHT22;8864;51.970;4.614;2024-02-16T15:40:17;18.10;90.20
17495;DHT22;8864;51.970;4.614;2024-02-16T15:43:00;18.10;90.20
17495;DHT22;8864;51.970;4.614;2024-02-16T15:45:28;18.10;90.20
17495;DHT22;8864;51.970;4.614;2024-02-16T15:47:55;18.00;90.20